Terminal Aerodrome Forecast
Issued by NWS

Home | Current Version | Previous Version | Text Only | Print | Product List | Glossary On
Versions: 1 2 3 4 5 6 7 8 9 10 11 12 13 14 15 16 17 18 19 20 21
000
FTUS43 KMQT 160500
TAFCMX
TAF
KCMX 160532Z 1606/1706 VRB03KT P6SM SCT200
     FM161400 14005KT P6SM BKN100
     FM161800 11008KT P6SM -SN OVC050
     FM161900 09010KT 3SM -SN OVC025
     FM162100 09014G23KT 1/2SM SN BLSN OVC007
     FM170400 08014KT 1SM -SN BLSN OVC007=

USA.gov is the U.S. government's official web portal to all federal, state and local government web resources and services.